sensor_id;sensor_type;location;lat;lon;timestamp;P1;durP1;ratioP1;P2;durP2;ratioP2
75935;SDS011;64614;32.062;34.834;2023-07-31T00:02:03;3.22;;;1.98;;
75935;SDS011;64614;32.062;34.834;2023-07-31T00:04:30;3.53;;;1.58;;
75935;SDS011;64614;32.062;34.834;2023-07-31T00:06:56;3.05;;;1.90;;
75935;SDS011;64614;32.062;34.834;2023-07-31T00:09:22;4.22;;;2.10;;
75935;SDS011;64614;32.062;34.834;2023-07-31T00:11:47;3.13;;;1.90;;
75935;SDS011;64614;32.062;34.834;2023-07-31T00:14:13;4.32;;;2.00;;
75935;SDS011;64614;32.062;34.834;2023-07-31T00:16:39;2.70;;;1.65;;
75935;SDS011;64614;32.062;34.834;2023-07-31T00:19:04;3.58;;;1.80;;
75935;SDS011;64614;32.062;34.834;2023-07-31T00:21:30;2.63;;;2.00;;
75935;SDS011;64614;32.062;34.834;2023-07-31T00:23:55;3.28;;;2.00;;
75935;SDS011;64614;32.062;34.834;2023-07-31T00:26:21;4.15;;;1.83;;
75935;SDS011;64614;32.062;34.834;2023-07-31T00:28:47;3.10;;;1.70;;
75935;SDS011;64614;32.062;34.834;2023-07-31T00:31:12;3.97;;;2.00;;
75935;SDS011;64614;32.062;34.834;2023-07-31T00:33:38;2.85;;;2.00;;
75935;SDS011;64614;32.062;34.834;2023-07-31T00:36:04;2.55;;;1.83;;
75935;SDS011;64614;32.062;34.834;2023-07-31T00:38:29;2.92;;;2.00;;
75935;SDS011;64614;32.062;34.834;2023-07-31T00:40:55;3.08;;;2.00;;
75935;SDS011;64614;32.062;34.834;2023-07-31T00:43:21;3.38;;;2.00;;
75935;SDS011;64614;32.062;34.834;2023-07-31T00:45:47;3.35;;;1.77;;
75935;SDS011;64614;32.062;34.834;2023-07-31T00:48:12;2.83;;;1.77;;
75935;SDS011;64614;32.062;34.834;2023-07-31T00:50:38;2.90;;;1.60;;
75935;SDS011;64614;32.062;34.834;2023-07-31T00:53:04;3.83;;;2.10;;
75935;SDS011;64614;32.062;34.834;2023-07-31T00:55:30;2.80;;;1.77;;
75935;SDS011;64614;32.062;34.834;2023-07-31T00:57:56;3.97;;;2.00;;
75935;SDS011;64614;32.062;34.834;2023-07-31T01:00:22;2.55;;;1.85;;
75935;SDS011;64614;32.062;34.834;2023-07-31T01:02:48;2.90;;;1.88;;
75935;SDS011;64614;32.062;34.834;2023-07-31T01:05:16;2.88;;;2.00;;
75935;SDS011;64614;32.062;34.834;2023-07-31T01:10:29;2.78;;;2.05;;
75935;SDS011;64614;32.062;34.834;2023-07-31T01:13:00;3.05;;;1.95;;
75935;SDS011;64614;32.062;34.834;2023-07-31T01:15:27;2.67;;;1.70;;
75935;SDS011;64614;32.062;34.834;2023-07-31T01:17:52;3.42;;;2.00;;
75935;SDS011;64614;32.062;34.834;2023-07-31T01:20:20;2.97;;;1.95;;
75935;SDS011;64614;32.062;34.834;2023-07-31T01:28:28;3.30;;;1.92;;
75935;SDS011;64614;32.062;34.834;2023-07-31T01:31:20;3.17;;;1.85;;
75935;SDS011;64614;32.062;34.834;2023-07-31T01:33:52;3.70;;;2.00;;
75935;SDS011;64614;32.062;34.834;2023-07-31T01:36:20;3.15;;;1.80;;
75935;SDS011;64614;32.062;34.834;2023-07-31T01:38:46;2.95;;;1.80;;
75935;SDS011;64614;32.062;34.834;2023-07-31T01:41:11;3.38;;;2.00;;
75935;SDS011;64614;32.062;34.834;2023-07-31T01:43:38;3.50;;;2.00;;
75935;SDS011;64614;32.062;34.834;2023-07-31T01:46:04;2.90;;;2.10;;
75935;SDS011;64614;32.062;34.834;2023-07-31T01:48:29;2.58;;;1.77;;
75935;SDS011;64614;32.062;34.834;2023-07-31T01:51:00;3.17;;;2.13;;
75935;SDS011;64614;32.062;34.834;2023-07-31T01:53:27;3.17;;;1.83;;
75935;SDS011;64614;32.062;34.834;2023-07-31T01:55:52;3.05;;;1.90;;
75935;SDS011;64614;32.062;34.834;2023-07-31T01:58:18;2.38;;;1.77;;
75935;SDS011;64614;32.062;34.834;2023-07-31T02:00:44;3.35;;;1.90;;
75935;SDS011;64614;32.062;34.834;2023-07-31T02:03:09;3.80;;;2.08;;
75935;SDS011;64614;32.062;34.834;2023-07-31T02:05:35;3.60;;;1.80;;
75935;SDS011;64614;32.062;34.834;2023-07-31T02:08:01;2.78;;;1.77;;
75935;SDS011;64614;32.062;34.834;2023-07-31T02:10:26;2.78;;;1.70;;
75935;SDS011;64614;32.062;34.834;2023-07-31T02:12:52;3.80;;;2.22;;
75935;SDS011;64614;32.062;34.834;2023-07-31T02:15:17;2.92;;;2.00;;
75935;SDS011;64614;32.062;34.834;2023-07-31T02:17:43;3.28;;;2.05;;
75935;SDS011;64614;32.062;34.834;2023-07-31T02:20:09;3.33;;;1.90;;
75935;SDS011;64614;32.062;34.834;2023-07-31T02:22:35;4.07;;;2.20;;
75935;SDS011;64614;32.062;34.834;2023-07-31T02:25:01;4.00;;;2.17;;
75935;SDS011;64614;32.062;34.834;2023-07-31T02:27:26;3.08;;;1.70;;
75935;SDS011;64614;32.062;34.834;2023-07-31T02:29:52;2.80;;;1.80;;
75935;SDS011;64614;32.062;34.834;2023-07-31T02:32:19;2.85;;;1.73;;
75935;SDS011;64614;32.062;34.834;2023-07-31T02:34:44;3.42;;;1.98;;
75935;SDS011;64614;32.062;34.834;2023-07-31T02:37:10;3.75;;;2.08;;
75935;SDS011;64614;32.062;34.834;2023-07-31T02:39:36;3.17;;;1.90;;
75935;SDS011;64614;32.062;34.834;2023-07-31T02:42:02;3.05;;;1.60;;
75935;SDS011;64614;32.062;34.834;2023-07-31T02:44:27;2.75;;;1.85;;
75935;SDS011;64614;32.062;34.834;2023-07-31T02:46:53;3.17;;;1.73;;
75935;SDS011;64614;32.062;34.834;2023-07-31T02:49:19;2.10;;;1.67;;
75935;SDS011;64614;32.062;34.834;2023-07-31T02:51:45;2.97;;;1.80;;
75935;SDS011;64614;32.062;34.834;2023-07-31T02:54:10;2.67;;;1.60;;
75935;SDS011;64614;32.062;34.834;2023-07-31T02:56:36;3.20;;;2.15;;
75935;SDS011;64614;32.062;34.834;2023-07-31T02:59:01;2.42;;;1.80;;
75935;SDS011;64614;32.062;34.834;2023-07-31T03:01:27;3.60;;;1.90;;
75935;SDS011;64614;32.062;34.834;2023-07-31T03:03:53;3.00;;;1.98;;
75935;SDS011;64614;32.062;34.834;2023-07-31T03:06:18;2.53;;;1.80;;
75935;SDS011;64614;32.062;34.834;2023-07-31T03:08:44;2.47;;;1.88;;
75935;SDS011;64614;32.062;34.834;2023-07-31T03:11:10;3.10;;;1.98;;
75935;SDS011;64614;32.062;34.834;2023-07-31T03:13:35;3.45;;;1.90;;
75935;SDS011;64614;32.062;34.834;2023-07-31T03:16:01;3.05;;;1.90;;
75935;SDS011;64614;32.062;34.834;2023-07-31T03:18:26;2.80;;;1.60;;
75935;SDS011;64614;32.062;34.834;2023-07-31T03:20:52;2.63;;;1.70;;
75935;SDS011;64614;32.062;34.834;2023-07-31T03:23:18;4.03;;;2.22;;
75935;SDS011;64614;32.062;34.834;2023-07-31T03:25:59;2.75;;;1.98;;
75935;SDS011;64614;32.062;34.834;2023-07-31T03:28:28;2.88;;;2.08;;
75935;SDS011;64614;32.062;34.834;2023-07-31T03:30:54;2.35;;;1.90;;
75935;SDS011;64614;32.062;34.834;2023-07-31T03:33:19;3.75;;;2.10;;
75935;SDS011;64614;32.062;34.834;2023-07-31T03:35:45;2.97;;;1.90;;
75935;SDS011;64614;32.062;34.834;2023-07-31T03:38:11;3.67;;;2.05;;
75935;SDS011;64614;32.062;34.834;2023-07-31T03:40:36;3.22;;;1.80;;
75935;SDS011;64614;32.062;34.834;2023-07-31T03:43:02;2.70;;;1.90;;
75935;SDS011;64614;32.062;34.834;2023-07-31T03:45:28;3.53;;;1.98;;
75935;SDS011;64614;32.062;34.834;2023-07-31T03:47:53;3.45;;;1.80;;
75935;SDS011;64614;32.062;34.834;2023-07-31T03:50:19;3.05;;;1.80;;
75935;SDS011;64614;32.062;34.834;2023-07-31T03:52:45;2.85;;;1.80;;
75935;SDS011;64614;32.062;34.834;2023-07-31T03:55:11;3.42;;;1.77;;
75935;SDS011;64614;32.062;34.834;2023-07-31T03:57:37;4.18;;;2.03;;
75935;SDS011;64614;32.062;34.834;2023-07-31T04:00:03;2.78;;;1.70;;
75935;SDS011;64614;32.062;34.834;2023-07-31T04:02:29;3.63;;;2.00;;
75935;SDS011;64614;32.062;34.834;2023-07-31T04:04:54;2.63;;;1.70;;
75935;SDS011;64614;32.062;34.834;2023-07-31T04:07:20;3.42;;;1.80;;
75935;SDS011;64614;32.062;34.834;2023-07-31T04:09:46;3.40;;;2.10;;
75935;SDS011;64614;32.062;34.834;2023-07-31T04:12:11;3.08;;;1.63;;
75935;SDS011;64614;32.062;34.834;2023-07-31T04:14:37;4.05;;;2.03;;
75935;SDS011;64614;32.062;34.834;2023-07-31T04:17:03;2.50;;;1.88;;
75935;SDS011;64614;32.062;34.834;2023-07-31T04:19:28;3.03;;;1.92;;
75935;SDS011;64614;32.062;34.834;2023-07-31T04:21:54;3.30;;;1.90;;
75935;SDS011;64614;32.062;34.834;2023-07-31T04:24:20;3.35;;;2.00;;
75935;SDS011;64614;32.062;34.834;2023-07-31T04:26:52;3.38;;;1.98;;
75935;SDS011;64614;32.062;34.834;2023-07-31T04:29:19;3.85;;;2.05;;
75935;SDS011;64614;32.062;34.834;2023-07-31T04:31:44;3.20;;;2.00;;
75935;SDS011;64614;32.062;34.834;2023-07-31T04:34:10;2.97;;;1.85;;
75935;SDS011;64614;32.062;34.834;2023-07-31T04:39:04;2.85;;;1.83;;
75935;SDS011;64614;32.062;34.834;2023-07-31T04:41:30;2.38;;;1.67;;
75935;SDS011;64614;32.062;34.834;2023-07-31T04:43:56;3.58;;;1.88;;
75935;SDS011;64614;32.062;34.834;2023-07-31T04:46:22;4.30;;;2.15;;
75935;SDS011;64614;32.062;34.834;2023-07-31T04:48:47;3.80;;;2.10;;
75935;SDS011;64614;32.062;34.834;2023-07-31T04:51:13;2.67;;;1.90;;
75935;SDS011;64614;32.062;34.834;2023-07-31T04:53:39;2.60;;;1.63;;
75935;SDS011;64614;32.062;34.834;2023-07-31T04:56:05;2.75;;;1.80;;
75935;SDS011;64614;32.062;34.834;2023-07-31T04:58:31;3.50;;;2.00;;
75935;SDS011;64614;32.062;34.834;2023-07-31T05:00:57;3.40;;;2.13;;
75935;SDS011;64614;32.062;34.834;2023-07-31T05:03:22;3.60;;;2.10;;
75935;SDS011;64614;32.062;34.834;2023-07-31T05:05:48;3.28;;;2.13;;
75935;SDS011;64614;32.062;34.834;2023-07-31T05:08:15;4.32;;;2.35;;
75935;SDS011;64614;32.062;34.834;2023-07-31T05:10:42;4.20;;;1.98;;
75935;SDS011;64614;32.062;34.834;2023-07-31T05:13:08;3.30;;;2.00;;
75935;SDS011;64614;32.062;34.834;2023-07-31T05:15:34;3.72;;;2.30;;
75935;SDS011;64614;32.062;34.834;2023-07-31T05:18:00;3.03;;;2.15;;
75935;SDS011;64614;32.062;34.834;2023-07-31T05:20:25;3.90;;;2.00;;
75935;SDS011;64614;32.062;34.834;2023-07-31T05:22:52;3.47;;;2.10;;
75935;SDS011;64614;32.062;34.834;2023-07-31T05:25:18;5.25;;;2.72;;
75935;SDS011;64614;32.062;34.834;2023-07-31T05:27:44;4.60;;;2.40;;
75935;SDS011;64614;32.062;34.834;2023-07-31T05:30:09;4.57;;;2.35;;
75935;SDS011;64614;32.062;34.834;2023-07-31T05:32:35;3.55;;;2.28;;
75935;SDS011;64614;32.062;34.834;2023-07-31T05:35:01;4.45;;;2.58;;
75935;SDS011;64614;32.062;34.834;2023-07-31T05:37:26;4.43;;;2.20;;
75935;SDS011;64614;32.062;34.834;2023-07-31T05:39:52;2.97;;;2.10;;
75935;SDS011;64614;32.062;34.834;2023-07-31T05:42:17;4.22;;;2.50;;
75935;SDS011;64614;32.062;34.834;2023-07-31T05:44:43;4.25;;;2.28;;
75935;SDS011;64614;32.062;34.834;2023-07-31T05:47:09;4.82;;;2.30;;
75935;SDS011;64614;32.062;34.834;2023-07-31T05:49:35;3.97;;;2.28;;
75935;SDS011;64614;32.062;34.834;2023-07-31T05:52:00;3.15;;;2.30;;
75935;SDS011;64614;32.062;34.834;2023-07-31T05:54:26;4.63;;;2.35;;
75935;SDS011;64614;32.062;34.834;2023-07-31T05:56:52;4.30;;;2.60;;
75935;SDS011;64614;32.062;34.834;2023-07-31T05:59:17;4.38;;;2.50;;
75935;SDS011;64614;32.062;34.834;2023-07-31T06:01:43;3.92;;;2.20;;
75935;SDS011;64614;32.062;34.834;2023-07-31T06:04:09;4.65;;;2.63;;
75935;SDS011;64614;32.062;34.834;2023-07-31T06:06:34;3.90;;;2.60;;
75935;SDS011;64614;32.062;34.834;2023-07-31T06:09:00;3.60;;;2.38;;
75935;SDS011;64614;32.062;34.834;2023-07-31T06:11:25;4.13;;;2.30;;
75935;SDS011;64614;32.062;34.834;2023-07-31T06:13:51;4.07;;;2.17;;
75935;SDS011;64614;32.062;34.834;2023-07-31T06:16:17;4.85;;;2.75;;
75935;SDS011;64614;32.062;34.834;2023-07-31T06:18:43;4.80;;;2.70;;
75935;SDS011;64614;32.062;34.834;2023-07-31T06:21:09;3.70;;;2.10;;
75935;SDS011;64614;32.062;34.834;2023-07-31T06:23:36;4.07;;;2.47;;
75935;SDS011;64614;32.062;34.834;2023-07-31T06:26:01;4.30;;;2.50;;
75935;SDS011;64614;32.062;34.834;2023-07-31T06:28:30;4.45;;;2.50;;
75935;SDS011;64614;32.062;34.834;2023-07-31T06:30:59;5.10;;;2.60;;
75935;SDS011;64614;32.062;34.834;2023-07-31T06:33:25;4.72;;;2.55;;
75935;SDS011;64614;32.062;34.834;2023-07-31T06:35:51;4.15;;;2.40;;
75935;SDS011;64614;32.062;34.834;2023-07-31T06:38:21;4.82;;;2.72;;
75935;SDS011;64614;32.062;34.834;2023-07-31T06:40:49;4.80;;;2.63;;
75935;SDS011;64614;32.062;34.834;2023-07-31T06:43:15;3.97;;;2.70;;
75935;SDS011;64614;32.062;34.834;2023-07-31T06:45:41;3.88;;;2.63;;
75935;SDS011;64614;32.062;34.834;2023-07-31T06:48:06;3.50;;;2.60;;
75935;SDS011;64614;32.062;34.834;2023-07-31T06:50:32;4.72;;;2.83;;
75935;SDS011;64614;32.062;34.834;2023-07-31T06:52:58;4.85;;;2.58;;
75935;SDS011;64614;32.062;34.834;2023-07-31T06:55:24;5.13;;;2.70;;
75935;SDS011;64614;32.062;34.834;2023-07-31T06:57:51;5.18;;;2.72;;
75935;SDS011;64614;32.062;34.834;2023-07-31T07:00:19;5.60;;;2.80;;
75935;SDS011;64614;32.062;34.834;2023-07-31T07:02:45;4.80;;;2.72;;
75935;SDS011;64614;32.062;34.834;2023-07-31T07:05:15;4.40;;;2.55;;
75935;SDS011;64614;32.062;34.834;2023-07-31T07:07:42;4.75;;;2.88;;
75935;SDS011;64614;32.062;34.834;2023-07-31T07:10:08;4.50;;;2.78;;
75935;SDS011;64614;32.062;34.834;2023-07-31T07:12:34;4.55;;;2.60;;
75935;SDS011;64614;32.062;34.834;2023-07-31T07:15:00;4.32;;;3.00;;
75935;SDS011;64614;32.062;34.834;2023-07-31T07:17:27;4.03;;;2.60;;
75935;SDS011;64614;32.062;34.834;2023-07-31T07:19:56;3.97;;;2.80;;
75935;SDS011;64614;32.062;34.834;2023-07-31T07:22:22;4.30;;;2.67;;
75935;SDS011;64614;32.062;34.834;2023-07-31T07:24:49;4.22;;;2.97;;
75935;SDS011;64614;32.062;34.834;2023-07-31T07:27:15;5.05;;;2.92;;
75935;SDS011;64614;32.062;34.834;2023-07-31T07:29:40;5.13;;;3.05;;
75935;SDS011;64614;32.062;34.834;2023-07-31T07:32:06;5.78;;;2.72;;
75935;SDS011;64614;32.062;34.834;2023-07-31T07:34:32;4.82;;;2.70;;
75935;SDS011;64614;32.062;34.834;2023-07-31T07:36:58;4.88;;;3.17;;
75935;SDS011;64614;32.062;34.834;2023-07-31T07:39:23;5.10;;;3.25;;
75935;SDS011;64614;32.062;34.834;2023-07-31T07:41:50;5.70;;;3.38;;
75935;SDS011;64614;32.062;34.834;2023-07-31T07:44:15;4.95;;;2.67;;
75935;SDS011;64614;32.062;34.834;2023-07-31T07:46:41;3.88;;;2.65;;
75935;SDS011;64614;32.062;34.834;2023-07-31T07:49:07;5.25;;;3.17;;
75935;SDS011;64614;32.062;34.834;2023-07-31T07:51:33;5.85;;;3.47;;
75935;SDS011;64614;32.062;34.834;2023-07-31T07:53:58;4.72;;;3.05;;
75935;SDS011;64614;32.062;34.834;2023-07-31T07:56:27;4.90;;;3.15;;
75935;SDS011;64614;32.062;34.834;2023-07-31T07:58:53;4.72;;;2.95;;
75935;SDS011;64614;32.062;34.834;2023-07-31T08:01:19;4.18;;;2.88;;
75935;SDS011;64614;32.062;34.834;2023-07-31T08:03:46;4.53;;;2.78;;
75935;SDS011;64614;32.062;34.834;2023-07-31T08:06:12;5.18;;;2.72;;
75935;SDS011;64614;32.062;34.834;2023-07-31T08:08:38;4.65;;;2.83;;
75935;SDS011;64614;32.062;34.834;2023-07-31T08:11:04;5.05;;;2.83;;
75935;SDS011;64614;32.062;34.834;2023-07-31T08:13:30;4.68;;;3.10;;
75935;SDS011;64614;32.062;34.834;2023-07-31T08:15:56;4.35;;;2.75;;
75935;SDS011;64614;32.062;34.834;2023-07-31T08:18:21;4.43;;;2.80;;
75935;SDS011;64614;32.062;34.834;2023-07-31T08:20:47;4.38;;;2.88;;
75935;SDS011;64614;32.062;34.834;2023-07-31T08:23:13;5.60;;;3.00;;
75935;SDS011;64614;32.062;34.834;2023-07-31T08:25:38;6.97;;;3.47;;
75935;SDS011;64614;32.062;34.834;2023-07-31T08:28:05;4.03;;;2.65;;
75935;SDS011;64614;32.062;34.834;2023-07-31T08:30:31;4.63;;;2.95;;
75935;SDS011;64614;32.062;34.834;2023-07-31T08:32:58;5.53;;;3.28;;
75935;SDS011;64614;32.062;34.834;2023-07-31T08:35:24;5.13;;;3.10;;
75935;SDS011;64614;32.062;34.834;2023-07-31T08:37:51;4.97;;;2.90;;
75935;SDS011;64614;32.062;34.834;2023-07-31T08:40:17;5.80;;;3.60;;
75935;SDS011;64614;32.062;34.834;2023-07-31T08:42:43;4.45;;;3.30;;
75935;SDS011;64614;32.062;34.834;2023-07-31T08:45:12;4.15;;;2.72;;
75935;SDS011;64614;32.062;34.834;2023-07-31T08:47:41;5.10;;;3.15;;
75935;SDS011;64614;32.062;34.834;2023-07-31T08:50:09;4.15;;;2.95;;
75935;SDS011;64614;32.062;34.834;2023-07-31T08:52:37;4.90;;;2.75;;
75935;SDS011;64614;32.062;34.834;2023-07-31T08:55:04;5.30;;;2.92;;
75935;SDS011;64614;32.062;34.834;2023-07-31T08:57:31;5.00;;;3.00;;
75935;SDS011;64614;32.062;34.834;2023-07-31T09:00:00;4.22;;;2.83;;
75935;SDS011;64614;32.062;34.834;2023-07-31T09:02:28;5.07;;;2.70;;
75935;SDS011;64614;32.062;34.834;2023-07-31T09:04:59;4.90;;;3.15;;
75935;SDS011;64614;32.062;34.834;2023-07-31T09:07:26;4.47;;;3.17;;
75935;SDS011;64614;32.062;34.834;2023-07-31T09:09:52;5.90;;;3.30;;
75935;SDS011;64614;32.062;34.834;2023-07-31T09:12:18;4.68;;;3.03;;
75935;SDS011;64614;32.062;34.834;2023-07-31T09:14:45;4.90;;;3.00;;
75935;SDS011;64614;32.062;34.834;2023-07-31T09:17:12;4.75;;;3.03;;
75935;SDS011;64614;32.062;34.834;2023-07-31T09:19:38;4.65;;;2.72;;
75935;SDS011;64614;32.062;34.834;2023-07-31T09:22:04;4.63;;;2.90;;
75935;SDS011;64614;32.062;34.834;2023-07-31T09:24:31;4.65;;;2.97;;
75935;SDS011;64614;32.062;34.834;2023-07-31T09:26:59;4.32;;;2.72;;
75935;SDS011;64614;32.062;34.834;2023-07-31T09:29:25;4.45;;;2.70;;
75935;SDS011;64614;32.062;34.834;2023-07-31T09:31:52;4.85;;;3.00;;
75935;SDS011;64614;32.062;34.834;2023-07-31T09:34:19;4.28;;;2.90;;
75935;SDS011;64614;32.062;34.834;2023-07-31T09:36:46;4.13;;;2.63;;
75935;SDS011;64614;32.062;34.834;2023-07-31T09:39:14;3.85;;;2.58;;
75935;SDS011;64614;32.062;34.834;2023-07-31T09:41:42;4.22;;;2.70;;
75935;SDS011;64614;32.062;34.834;2023-07-31T09:44:10;4.65;;;2.90;;
75935;SDS011;64614;32.062;34.834;2023-07-31T09:46:36;4.30;;;2.63;;
75935;SDS011;64614;32.062;34.834;2023-07-31T09:49:12;4.30;;;3.03;;
75935;SDS011;64614;32.062;34.834;2023-07-31T09:51:39;5.28;;;3.25;;
75935;SDS011;64614;32.062;34.834;2023-07-31T09:54:09;4.88;;;3.10;;
75935;SDS011;64614;32.062;34.834;2023-07-31T09:56:42;4.05;;;2.83;;
75935;SDS011;64614;32.062;34.834;2023-07-31T09:59:11;4.40;;;2.72;;
75935;SDS011;64614;32.062;34.834;2023-07-31T10:01:38;4.13;;;2.60;;
75935;SDS011;64614;32.062;34.834;2023-07-31T10:04:05;4.20;;;2.90;;
75935;SDS011;64614;32.062;34.834;2023-07-31T10:06:34;4.40;;;2.60;;
75935;SDS011;64614;32.062;34.834;2023-07-31T10:09:01;4.30;;;2.70;;
75935;SDS011;64614;32.062;34.834;2023-07-31T10:11:29;4.70;;;2.65;;
75935;SDS011;64614;32.062;34.834;2023-07-31T10:13:59;3.92;;;2.67;;
75935;SDS011;64614;32.062;34.834;2023-07-31T10:16:25;4.38;;;2.83;;
75935;SDS011;64614;32.062;34.834;2023-07-31T10:18:51;3.90;;;2.58;;
75935;SDS011;64614;32.062;34.834;2023-07-31T10:21:18;5.20;;;3.00;;
75935;SDS011;64614;32.062;34.834;2023-07-31T10:23:44;4.72;;;3.00;;
75935;SDS011;64614;32.062;34.834;2023-07-31T10:26:10;4.55;;;2.90;;
75935;SDS011;64614;32.062;34.834;2023-07-31T10:28:38;4.20;;;2.83;;
75935;SDS011;64614;32.062;34.834;2023-07-31T10:31:05;4.97;;;3.00;;
75935;SDS011;64614;32.062;34.834;2023-07-31T10:33:31;5.07;;;3.10;;
75935;SDS011;64614;32.062;34.834;2023-07-31T10:36:13;5.43;;;3.17;;
75935;SDS011;64614;32.062;34.834;2023-07-31T10:38:43;4.97;;;2.95;;
75935;SDS011;64614;32.062;34.834;2023-07-31T10:41:09;4.60;;;3.00;;
75935;SDS011;64614;32.062;34.834;2023-07-31T10:43:36;4.63;;;2.90;;
75935;SDS011;64614;32.062;34.834;2023-07-31T10:46:09;4.10;;;2.80;;
75935;SDS011;64614;32.062;34.834;2023-07-31T10:48:38;3.88;;;2.35;;
75935;SDS011;64614;32.062;34.834;2023-07-31T10:51:07;4.00;;;2.53;;
75935;SDS011;64614;32.062;34.834;2023-07-31T10:53:35;4.57;;;2.85;;
75935;SDS011;64614;32.062;34.834;2023-07-31T10:56:04;5.05;;;3.08;;
75935;SDS011;64614;32.062;34.834;2023-07-31T10:58:34;4.30;;;2.60;;
75935;SDS011;64614;32.062;34.834;2023-07-31T11:01:02;3.47;;;2.38;;
75935;SDS011;64614;32.062;34.834;2023-07-31T11:03:42;4.50;;;3.15;;
75935;SDS011;64614;32.062;34.834;2023-07-31T11:06:11;4.30;;;2.65;;
75935;SDS011;64614;32.062;34.834;2023-07-31T11:08:41;4.38;;;2.65;;
75935;SDS011;64614;32.062;34.834;2023-07-31T11:11:10;4.85;;;2.85;;
75935;SDS011;64614;32.062;34.834;2023-07-31T11:13:45;4.20;;;2.83;;
75935;SDS011;64614;32.062;34.834;2023-07-31T11:16:15;3.55;;;2.70;;
75935;SDS011;64614;32.062;34.834;2023-07-31T11:18:43;4.05;;;2.58;;
75935;SDS011;64614;32.062;34.834;2023-07-31T11:21:13;3.97;;;2.70;;
75935;SDS011;64614;32.062;34.834;2023-07-31T11:23:40;3.72;;;2.60;;
75935;SDS011;64614;32.062;34.834;2023-07-31T11:26:06;3.22;;;2.20;;
75935;SDS011;64614;32.062;34.834;2023-07-31T11:28:33;4.35;;;2.50;;
75935;SDS011;64614;32.062;34.834;2023-07-31T11:31:00;4.80;;;3.10;;
75935;SDS011;64614;32.062;34.834;2023-07-31T11:33:27;5.07;;;3.03;;
75935;SDS011;64614;32.062;34.834;2023-07-31T11:35:53;4.47;;;2.60;;
75935;SDS011;64614;32.062;34.834;2023-07-31T11:38:31;3.45;;;2.55;;
75935;SDS011;64614;32.062;34.834;2023-07-31T11:40:58;3.90;;;2.75;;
75935;SDS011;64614;32.062;34.834;2023-07-31T11:43:28;3.50;;;2.50;;
75935;SDS011;64614;32.062;34.834;2023-07-31T11:45:56;4.65;;;2.70;;
75935;SDS011;64614;32.062;34.834;2023-07-31T11:48:26;4.38;;;2.70;;
75935;SDS011;64614;32.062;34.834;2023-07-31T11:50:58;4.40;;;2.80;;
75935;SDS011;64614;32.062;34.834;2023-07-31T11:56:00;3.38;;;2.20;;
75935;SDS011;64614;32.062;34.834;2023-07-31T11:58:29;3.83;;;2.45;;
75935;SDS011;64614;32.062;34.834;2023-07-31T12:00:56;4.05;;;2.70;;
75935;SDS011;64614;32.062;34.834;2023-07-31T12:03:24;4.63;;;2.90;;
75935;SDS011;64614;32.062;34.834;2023-07-31T12:05:51;3.20;;;2.40;;
75935;SDS011;64614;32.062;34.834;2023-07-31T12:08:18;4.65;;;2.80;;
75935;SDS011;64614;32.062;34.834;2023-07-31T12:10:46;4.03;;;2.80;;
75935;SDS011;64614;32.062;34.834;2023-07-31T12:13:19;3.88;;;2.70;;
75935;SDS011;64614;32.062;34.834;2023-07-31T12:15:48;4.05;;;2.85;;
75935;SDS011;64614;32.062;34.834;2023-07-31T12:18:14;3.42;;;2.30;;
75935;SDS011;64614;32.062;34.834;2023-07-31T12:23:07;3.53;;;2.50;;
75935;SDS011;64614;32.062;34.834;2023-07-31T12:25:37;4.18;;;2.88;;
75935;SDS011;64614;32.062;34.834;2023-07-31T12:28:03;4.13;;;2.60;;
75935;SDS011;64614;32.062;34.834;2023-07-31T12:30:32;3.58;;;2.42;;
75935;SDS011;64614;32.062;34.834;2023-07-31T12:33:05;4.00;;;2.63;;
75935;SDS011;64614;32.062;34.834;2023-07-31T12:35:42;3.60;;;2.47;;
75935;SDS011;64614;32.062;34.834;2023-07-31T12:38:10;3.53;;;2.45;;
75935;SDS011;64614;32.062;34.834;2023-07-31T12:40:40;4.95;;;2.50;;
75935;SDS011;64614;32.062;34.834;2023-07-31T12:43:07;3.90;;;2.33;;
75935;SDS011;64614;32.062;34.834;2023-07-31T12:45:36;4.10;;;2.80;;
75935;SDS011;64614;32.062;34.834;2023-07-31T12:48:01;3.90;;;2.75;;
75935;SDS011;64614;32.062;34.834;2023-07-31T12:50:27;3.92;;;2.50;;
75935;SDS011;64614;32.062;34.834;2023-07-31T12:52:53;3.53;;;2.30;;
75935;SDS011;64614;32.062;34.834;2023-07-31T12:55:20;3.72;;;2.50;;
75935;SDS011;64614;32.062;34.834;2023-07-31T12:57:46;3.97;;;2.33;;
75935;SDS011;64614;32.062;34.834;2023-07-31T13:00:12;4.82;;;2.90;;
75935;SDS011;64614;32.062;34.834;2023-07-31T13:02:38;3.75;;;2.58;;
75935;SDS011;64614;32.062;34.834;2023-07-31T13:05:04;3.70;;;2.40;;
75935;SDS011;64614;32.062;34.834;2023-07-31T13:07:30;3.75;;;2.40;;
75935;SDS011;64614;32.062;34.834;2023-07-31T13:09:55;3.63;;;2.47;;
75935;SDS011;64614;32.062;34.834;2023-07-31T13:12:21;3.42;;;2.33;;
75935;SDS011;64614;32.062;34.834;2023-07-31T13:14:47;4.60;;;2.60;;
75935;SDS011;64614;32.062;34.834;2023-07-31T13:17:12;3.38;;;2.30;;
75935;SDS011;64614;32.062;34.834;2023-07-31T13:19:38;4.15;;;2.58;;
75935;SDS011;64614;32.062;34.834;2023-07-31T13:22:04;3.30;;;2.20;;
75935;SDS011;64614;32.062;34.834;2023-07-31T13:24:30;3.92;;;2.20;;
75935;SDS011;64614;32.062;34.834;2023-07-31T13:26:56;3.78;;;2.60;;
75935;SDS011;64614;32.062;34.834;2023-07-31T13:29:22;4.43;;;2.55;;
75935;SDS011;64614;32.062;34.834;2023-07-31T13:31:49;4.38;;;2.75;;
75935;SDS011;64614;32.062;34.834;2023-07-31T13:34:14;3.83;;;2.58;;
75935;SDS011;64614;32.062;34.834;2023-07-31T13:36:40;4.32;;;2.58;;
75935;SDS011;64614;32.062;34.834;2023-07-31T13:39:06;3.95;;;2.50;;
75935;SDS011;64614;32.062;34.834;2023-07-31T13:41:32;3.38;;;2.38;;
75935;SDS011;64614;32.062;34.834;2023-07-31T13:43:58;3.65;;;2.40;;
75935;SDS011;64614;32.062;34.834;2023-07-31T13:46:24;4.10;;;2.50;;
75935;SDS011;64614;32.062;34.834;2023-07-31T13:48:51;3.40;;;2.45;;
75935;SDS011;64614;32.062;34.834;2023-07-31T13:51:19;4.43;;;2.60;;
75935;SDS011;64614;32.062;34.834;2023-07-31T13:53:45;3.85;;;2.53;;
75935;SDS011;64614;32.062;34.834;2023-07-31T13:56:11;3.63;;;2.50;;
75935;SDS011;64614;32.062;34.834;2023-07-31T13:58:36;3.45;;;2.40;;
75935;SDS011;64614;32.062;34.834;2023-07-31T14:01:02;4.13;;;2.30;;
75935;SDS011;64614;32.062;34.834;2023-07-31T14:03:28;3.75;;;2.50;;
75935;SDS011;64614;32.062;34.834;2023-07-31T14:05:54;3.80;;;2.50;;
75935;SDS011;64614;32.062;34.834;2023-07-31T14:08:20;4.28;;;2.35;;
75935;SDS011;64614;32.062;34.834;2023-07-31T14:10:47;4.03;;;2.35;;
75935;SDS011;64614;32.062;34.834;2023-07-31T14:13:12;4.40;;;2.40;;
75935;SDS011;64614;32.062;34.834;2023-07-31T14:15:39;3.78;;;2.22;;
75935;SDS011;64614;32.062;34.834;2023-07-31T14:18:07;3.72;;;2.20;;
75935;SDS011;64614;32.062;34.834;2023-07-31T14:20:33;3.67;;;2.22;;
75935;SDS011;64614;32.062;34.834;2023-07-31T14:22:58;4.18;;;2.38;;
75935;SDS011;64614;32.062;34.834;2023-07-31T14:25:24;3.53;;;2.20;;
75935;SDS011;64614;32.062;34.834;2023-07-31T14:27:57;3.67;;;2.47;;
75935;SDS011;64614;32.062;34.834;2023-07-31T14:30:23;3.83;;;2.53;;
75935;SDS011;64614;32.062;34.834;2023-07-31T14:32:49;3.92;;;2.50;;
75935;SDS011;64614;32.062;34.834;2023-07-31T14:35:15;3.10;;;2.10;;
75935;SDS011;64614;32.062;34.834;2023-07-31T14:37:41;3.78;;;2.33;;
75935;SDS011;64614;32.062;34.834;2023-07-31T14:40:08;3.17;;;2.30;;
75935;SDS011;64614;32.062;34.834;2023-07-31T14:42:36;4.25;;;2.00;;
75935;SDS011;64614;32.062;34.834;2023-07-31T14:45:03;3.20;;;2.40;;
75935;SDS011;64614;32.062;34.834;2023-07-31T14:47:29;3.72;;;2.30;;